sensor_id;sensor_type;location;lat;lon;timestamp;P1;durP1;ratioP1;P2;durP2;ratioP2
18280;SDS011;9266;51.132;17.062;2023-07-13T00:00:48;7.87;;;6.40;;
18280;SDS011;9266;51.132;17.062;2023-07-13T00:03:16;10.03;;;6.30;;
18280;SDS011;9266;51.132;17.062;2023-07-13T00:05:43;8.30;;;6.30;;
18280;SDS011;9266;51.132;17.062;2023-07-13T00:08:10;8.03;;;6.03;;
18280;SDS011;9266;51.132;17.062;2023-07-13T00:10:40;8.77;;;5.97;;
18280;SDS011;9266;51.132;17.062;2023-07-13T00:13:09;7.97;;;5.83;;
18280;SDS011;9266;51.132;17.062;2023-07-13T00:15:36;9.57;;;6.40;;
18280;SDS011;9266;51.132;17.062;2023-07-13T00:18:03;9.33;;;6.20;;
18280;SDS011;9266;51.132;17.062;2023-07-13T00:20:30;12.50;;;6.70;;
18280;SDS011;9266;51.132;17.062;2023-07-13T00:22:58;7.77;;;6.23;;
18280;SDS011;9266;51.132;17.062;2023-07-13T00:25:25;8.20;;;6.37;;
18280;SDS011;9266;51.132;17.062;2023-07-13T00:27:53;8.70;;;6.40;;
18280;SDS011;9266;51.132;17.062;2023-07-13T00:30:22;10.60;;;6.03;;
18280;SDS011;9266;51.132;17.062;2023-07-13T00:32:49;9.90;;;7.00;;
18280;SDS011;9266;51.132;17.062;2023-07-13T00:35:16;9.97;;;6.73;;
18280;SDS011;9266;51.132;17.062;2023-07-13T00:37:44;9.00;;;6.73;;
18280;SDS011;9266;51.132;17.062;2023-07-13T00:40:11;7.17;;;6.47;;
18280;SDS011;9266;51.132;17.062;2023-07-13T00:42:40;10.23;;;7.10;;
18280;SDS011;9266;51.132;17.062;2023-07-13T00:46:07;8.50;;;6.43;;
18280;SDS011;9266;51.132;17.062;2023-07-13T00:48:17;8.43;;;6.20;;
18280;SDS011;9266;51.132;17.062;2023-07-13T00:50:47;9.13;;;6.67;;
18280;SDS011;9266;51.132;17.062;2023-07-13T00:53:18;8.37;;;7.30;;
18280;SDS011;9266;51.132;17.062;2023-07-13T00:55:46;7.43;;;6.50;;
18280;SDS011;9266;51.132;17.062;2023-07-13T00:58:15;10.10;;;7.17;;
18280;SDS011;9266;51.132;17.062;2023-07-13T01:00:42;9.70;;;6.83;;
18280;SDS011;9266;51.132;17.062;2023-07-13T01:03:10;10.53;;;6.97;;
18280;SDS011;9266;51.132;17.062;2023-07-13T01:05:39;8.40;;;6.60;;
18280;SDS011;9266;51.132;17.062;2023-07-13T01:08:06;8.80;;;6.40;;
18280;SDS011;9266;51.132;17.062;2023-07-13T01:10:34;11.67;;;6.97;;
18280;SDS011;9266;51.132;17.062;2023-07-13T01:13:04;9.90;;;6.73;;
18280;SDS011;9266;51.132;17.062;2023-07-13T01:15:35;11.37;;;7.27;;
18280;SDS011;9266;51.132;17.062;2023-07-13T01:18:04;10.33;;;7.70;;
18280;SDS011;9266;51.132;17.062;2023-07-13T01:20:33;10.20;;;7.20;;
18280;SDS011;9266;51.132;17.062;2023-07-13T01:23:04;10.77;;;7.50;;
18280;SDS011;9266;51.132;17.062;2023-07-13T01:25:32;10.73;;;7.03;;
18280;SDS011;9266;51.132;17.062;2023-07-13T01:28:00;14.03;;;7.93;;
18280;SDS011;9266;51.132;17.062;2023-07-13T01:30:28;9.07;;;7.27;;
18280;SDS011;9266;51.132;17.062;2023-07-13T01:32:55;10.30;;;7.33;;
18280;SDS011;9266;51.132;17.062;2023-07-13T01:35:22;10.27;;;7.23;;
18280;SDS011;9266;51.132;17.062;2023-07-13T01:37:50;10.23;;;7.80;;
18280;SDS011;9266;51.132;17.062;2023-07-13T01:40:19;10.70;;;7.63;;
18280;SDS011;9266;51.132;17.062;2023-07-13T01:42:46;8.63;;;7.33;;
18280;SDS011;9266;51.132;17.062;2023-07-13T01:45:13;9.13;;;7.03;;
18280;SDS011;9266;51.132;17.062;2023-07-13T01:47:40;7.87;;;7.03;;
18280;SDS011;9266;51.132;17.062;2023-07-13T01:50:07;8.83;;;7.10;;
18280;SDS011;9266;51.132;17.062;2023-07-13T01:52:35;8.60;;;7.57;;
18280;SDS011;9266;51.132;17.062;2023-07-13T01:55:02;11.40;;;7.30;;
18280;SDS011;9266;51.132;17.062;2023-07-13T01:57:31;9.57;;;7.57;;
18280;SDS011;9266;51.132;17.062;2023-07-13T01:59:58;12.53;;;8.63;;
18280;SDS011;9266;51.132;17.062;2023-07-13T02:02:25;11.33;;;8.90;;
18280;SDS011;9266;51.132;17.062;2023-07-13T02:04:52;13.30;;;8.10;;
18280;SDS011;9266;51.132;17.062;2023-07-13T02:07:19;10.43;;;8.53;;
18280;SDS011;9266;51.132;17.062;2023-07-13T02:09:46;9.23;;;8.27;;
18280;SDS011;9266;51.132;17.062;2023-07-13T02:12:13;13.13;;;9.23;;
18280;SDS011;9266;51.132;17.062;2023-07-13T02:14:41;14.83;;;9.67;;
18280;SDS011;9266;51.132;17.062;2023-07-13T02:17:09;12.07;;;9.37;;
18280;SDS011;9266;51.132;17.062;2023-07-13T02:19:36;11.73;;;9.50;;
18280;SDS011;9266;51.132;17.062;2023-07-13T02:22:03;11.20;;;9.53;;
18280;SDS011;9266;51.132;17.062;2023-07-13T02:24:31;12.83;;;10.10;;
18280;SDS011;9266;51.132;17.062;2023-07-13T02:26:57;12.60;;;9.70;;
18280;SDS011;9266;51.132;17.062;2023-07-13T02:29:25;11.73;;;9.33;;
18280;SDS011;9266;51.132;17.062;2023-07-13T02:31:53;10.77;;;9.33;;
18280;SDS011;9266;51.132;17.062;2023-07-13T02:34:20;14.23;;;9.77;;
18280;SDS011;9266;51.132;17.062;2023-07-13T02:36:47;12.17;;;9.67;;
18280;SDS011;9266;51.132;17.062;2023-07-13T02:39:14;11.87;;;9.30;;
18280;SDS011;9266;51.132;17.062;2023-07-13T02:41:41;14.73;;;10.37;;
18280;SDS011;9266;51.132;17.062;2023-07-13T02:44:08;12.00;;;9.80;;
18280;SDS011;9266;51.132;17.062;2023-07-13T02:46:36;12.60;;;9.30;;
18280;SDS011;9266;51.132;17.062;2023-07-13T02:49:04;12.17;;;9.13;;
18280;SDS011;9266;51.132;17.062;2023-07-13T02:51:32;11.40;;;10.03;;
18280;SDS011;9266;51.132;17.062;2023-07-13T02:53:59;12.87;;;9.50;;
18280;SDS011;9266;51.132;17.062;2023-07-13T02:56:27;12.57;;;9.53;;
18280;SDS011;9266;51.132;17.062;2023-07-13T02:58:55;11.70;;;8.90;;
18280;SDS011;9266;51.132;17.062;2023-07-13T03:01:22;11.70;;;9.50;;
18280;SDS011;9266;51.132;17.062;2023-07-13T03:03:50;11.00;;;9.83;;
18280;SDS011;9266;51.132;17.062;2023-07-13T03:06:19;10.87;;;9.47;;
18280;SDS011;9266;51.132;17.062;2023-07-13T03:08:48;15.47;;;10.23;;
18280;SDS011;9266;51.132;17.062;2023-07-13T03:11:17;13.20;;;10.37;;
18280;SDS011;9266;51.132;17.062;2023-07-13T03:13:45;12.87;;;9.90;;
18280;SDS011;9266;51.132;17.062;2023-07-13T03:16:12;11.87;;;10.00;;
18280;SDS011;9266;51.132;17.062;2023-07-13T03:18:40;14.60;;;10.00;;
18280;SDS011;9266;51.132;17.062;2023-07-13T03:21:08;12.33;;;9.23;;
18280;SDS011;9266;51.132;17.062;2023-07-13T03:23:36;9.80;;;8.77;;
18280;SDS011;9266;51.132;17.062;2023-07-13T03:26:04;9.10;;;8.03;;
18280;SDS011;9266;51.132;17.062;2023-07-13T03:28:33;9.57;;;7.70;;
18280;SDS011;9266;51.132;17.062;2023-07-13T03:31:01;13.17;;;8.50;;
18280;SDS011;9266;51.132;17.062;2023-07-13T03:33:29;13.23;;;7.97;;
18280;SDS011;9266;51.132;17.062;2023-07-13T03:35:56;11.67;;;7.67;;
18280;SDS011;9266;51.132;17.062;2023-07-13T03:38:23;9.33;;;7.50;;
18280;SDS011;9266;51.132;17.062;2023-07-13T03:40:52;10.67;;;7.97;;
18280;SDS011;9266;51.132;17.062;2023-07-13T03:43:19;13.30;;;8.80;;
18280;SDS011;9266;51.132;17.062;2023-07-13T03:45:46;10.60;;;7.87;;
18280;SDS011;9266;51.132;17.062;2023-07-13T03:48:13;27.30;;;9.57;;
18280;SDS011;9266;51.132;17.062;2023-07-13T03:50:41;20.90;;;9.20;;
18280;SDS011;9266;51.132;17.062;2023-07-13T03:53:08;11.40;;;8.03;;
18280;SDS011;9266;51.132;17.062;2023-07-13T03:55:35;14.10;;;8.30;;
18280;SDS011;9266;51.132;17.062;2023-07-13T04:00:52;11.97;;;8.60;;
18280;SDS011;9266;51.132;17.062;2023-07-13T04:03:19;11.17;;;6.93;;
18280;SDS011;9266;51.132;17.062;2023-07-13T04:05:47;8.17;;;7.30;;
18280;SDS011;9266;51.132;17.062;2023-07-13T04:08:14;8.33;;;7.33;;
18280;SDS011;9266;51.132;17.062;2023-07-13T04:10:41;11.13;;;7.47;;
18280;SDS011;9266;51.132;17.062;2023-07-13T04:13:08;11.93;;;7.53;;
18280;SDS011;9266;51.132;17.062;2023-07-13T04:15:38;16.00;;;7.70;;
18280;SDS011;9266;51.132;17.062;2023-07-13T04:18:06;7.70;;;6.87;;
18280;SDS011;9266;51.132;17.062;2023-07-13T04:20:34;11.57;;;7.33;;
18280;SDS011;9266;51.132;17.062;2023-07-13T04:23:01;9.20;;;7.17;;
18280;SDS011;9266;51.132;17.062;2023-07-13T04:25:28;9.07;;;6.90;;
18280;SDS011;9266;51.132;17.062;2023-07-13T04:27:55;13.73;;;8.03;;
18280;SDS011;9266;51.132;17.062;2023-07-13T04:30:23;9.07;;;6.63;;
18280;SDS011;9266;51.132;17.062;2023-07-13T04:32:52;7.13;;;6.03;;
18280;SDS011;9266;51.132;17.062;2023-07-13T04:35:19;8.17;;;5.83;;
18280;SDS011;9266;51.132;17.062;2023-07-13T04:37:47;9.07;;;5.00;;
18280;SDS011;9266;51.132;17.062;2023-07-13T04:40:15;7.47;;;5.87;;
18280;SDS011;9266;51.132;17.062;2023-07-13T04:42:42;7.50;;;4.50;;
18280;SDS011;9266;51.132;17.062;2023-07-13T04:45:10;7.10;;;5.00;;
18280;SDS011;9266;51.132;17.062;2023-07-13T04:47:37;7.33;;;4.83;;
18280;SDS011;9266;51.132;17.062;2023-07-13T04:50:06;6.20;;;5.30;;
18280;SDS011;9266;51.132;17.062;2023-07-13T04:52:34;7.73;;;5.80;;
18280;SDS011;9266;51.132;17.062;2023-07-13T04:55:01;8.27;;;5.47;;
18280;SDS011;9266;51.132;17.062;2023-07-13T04:57:28;9.53;;;5.70;;
18280;SDS011;9266;51.132;17.062;2023-07-13T04:59:55;6.80;;;6.10;;
18280;SDS011;9266;51.132;17.062;2023-07-13T05:02:26;10.43;;;5.90;;
18280;SDS011;9266;51.132;17.062;2023-07-13T05:04:53;8.73;;;6.10;;
18280;SDS011;9266;51.132;17.062;2023-07-13T05:07:22;9.07;;;6.20;;
18280;SDS011;9266;51.132;17.062;2023-07-13T05:09:49;6.63;;;5.90;;
18280;SDS011;9266;51.132;17.062;2023-07-13T05:12:16;8.20;;;6.80;;
18280;SDS011;9266;51.132;17.062;2023-07-13T05:14:43;7.23;;;6.53;;
18280;SDS011;9266;51.132;17.062;2023-07-13T05:17:10;8.80;;;6.37;;
18280;SDS011;9266;51.132;17.062;2023-07-13T05:19:37;10.17;;;7.50;;
18280;SDS011;9266;51.132;17.062;2023-07-13T05:22:04;8.30;;;7.43;;
18280;SDS011;9266;51.132;17.062;2023-07-13T05:24:32;7.80;;;7.00;;
18280;SDS011;9266;51.132;17.062;2023-07-13T05:26:59;8.93;;;7.50;;
18280;SDS011;9266;51.132;17.062;2023-07-13T05:29:26;9.80;;;7.67;;
18280;SDS011;9266;51.132;17.062;2023-07-13T05:31:54;8.83;;;7.30;;
18280;SDS011;9266;51.132;17.062;2023-07-13T05:34:21;9.20;;;7.83;;
18280;SDS011;9266;51.132;17.062;2023-07-13T05:36:48;10.70;;;7.83;;
18280;SDS011;9266;51.132;17.062;2023-07-13T05:39:15;10.93;;;7.73;;
18280;SDS011;9266;51.132;17.062;2023-07-13T05:41:44;11.07;;;8.33;;
18280;SDS011;9266;51.132;17.062;2023-07-13T05:44:11;9.03;;;7.33;;
18280;SDS011;9266;51.132;17.062;2023-07-13T05:46:38;7.40;;;6.70;;
18280;SDS011;9266;51.132;17.062;2023-07-13T05:49:05;7.50;;;6.73;;
18280;SDS011;9266;51.132;17.062;2023-07-13T05:51:32;7.00;;;6.30;;
18280;SDS011;9266;51.132;17.062;2023-07-13T05:54:00;9.07;;;6.27;;
18280;SDS011;9266;51.132;17.062;2023-07-13T05:56:26;7.20;;;6.00;;
18280;SDS011;9266;51.132;17.062;2023-07-13T05:58:55;6.83;;;6.13;;
18280;SDS011;9266;51.132;17.062;2023-07-13T06:01:23;8.77;;;6.20;;
18280;SDS011;9266;51.132;17.062;2023-07-13T06:03:50;8.37;;;6.20;;
18280;SDS011;9266;51.132;17.062;2023-07-13T06:06:17;6.17;;;5.67;;
18280;SDS011;9266;51.132;17.062;2023-07-13T06:08:44;7.37;;;6.27;;
18280;SDS011;9266;51.132;17.062;2023-07-13T06:11:12;7.20;;;6.17;;
18280;SDS011;9266;51.132;17.062;2023-07-13T06:13:41;9.73;;;6.73;;
18280;SDS011;9266;51.132;17.062;2023-07-13T06:16:10;6.93;;;6.23;;
18280;SDS011;9266;51.132;17.062;2023-07-13T06:18:37;6.97;;;6.00;;
18280;SDS011;9266;51.132;17.062;2023-07-13T06:21:06;7.07;;;6.03;;
18280;SDS011;9266;51.132;17.062;2023-07-13T06:23:33;6.40;;;5.70;;
18280;SDS011;9266;51.132;17.062;2023-07-13T06:26:01;6.67;;;6.07;;
18280;SDS011;9266;51.132;17.062;2023-07-13T06:28:28;6.50;;;5.90;;
18280;SDS011;9266;51.132;17.062;2023-07-13T06:30:56;5.20;;;4.70;;
18280;SDS011;9266;51.132;17.062;2023-07-13T06:33:25;7.20;;;5.57;;
18280;SDS011;9266;51.132;17.062;2023-07-13T06:35:52;6.73;;;4.90;;
18280;SDS011;9266;51.132;17.062;2023-07-13T06:38:19;7.33;;;4.40;;
18280;SDS011;9266;51.132;17.062;2023-07-13T06:40:46;11.60;;;4.87;;
18280;SDS011;9266;51.132;17.062;2023-07-13T06:43:13;5.73;;;3.97;;
18280;SDS011;9266;51.132;17.062;2023-07-13T06:45:41;6.57;;;4.67;;
18280;SDS011;9266;51.132;17.062;2023-07-13T06:48:10;5.90;;;5.00;;
18280;SDS011;9266;51.132;17.062;2023-07-13T06:50:39;7.47;;;5.10;;
18280;SDS011;9266;51.132;17.062;2023-07-13T06:53:07;9.70;;;5.40;;
18280;SDS011;9266;51.132;17.062;2023-07-13T06:55:34;6.23;;;5.37;;
18280;SDS011;9266;51.132;17.062;2023-07-13T06:58:01;9.00;;;5.93;;
18280;SDS011;9266;51.132;17.062;2023-07-13T07:00:28;11.10;;;6.17;;
18280;SDS011;9266;51.132;17.062;2023-07-13T07:02:55;8.33;;;6.30;;
18280;SDS011;9266;51.132;17.062;2023-07-13T07:05:22;7.83;;;7.03;;
18280;SDS011;9266;51.132;17.062;2023-07-13T07:07:50;8.77;;;6.57;;
18280;SDS011;9266;51.132;17.062;2023-07-13T07:10:18;7.30;;;6.60;;
18280;SDS011;9266;51.132;17.062;2023-07-13T07:12:46;7.40;;;6.30;;
18280;SDS011;9266;51.132;17.062;2023-07-13T07:15:13;8.57;;;7.00;;
18280;SDS011;9266;51.132;17.062;2023-07-13T07:17:40;10.43;;;7.60;;
18280;SDS011;9266;51.132;17.062;2023-07-13T07:20:09;13.27;;;8.83;;
18280;SDS011;9266;51.132;17.062;2023-07-13T07:22:37;10.97;;;8.17;;
18280;SDS011;9266;51.132;17.062;2023-07-13T07:25:05;10.23;;;7.87;;
18280;SDS011;9266;51.132;17.062;2023-07-13T07:27:32;9.90;;;8.83;;
18280;SDS011;9266;51.132;17.062;2023-07-13T07:29:59;13.87;;;8.93;;
18280;SDS011;9266;51.132;17.062;2023-07-13T07:32:28;10.67;;;8.80;;
18280;SDS011;9266;51.132;17.062;2023-07-13T07:34:55;12.00;;;8.90;;
18280;SDS011;9266;51.132;17.062;2023-07-13T07:37:23;12.50;;;8.20;;
18280;SDS011;9266;51.132;17.062;2023-07-13T07:39:50;9.70;;;7.97;;
18280;SDS011;9266;51.132;17.062;2023-07-13T07:42:18;9.43;;;8.00;;
18280;SDS011;9266;51.132;17.062;2023-07-13T07:44:45;9.57;;;8.57;;
18280;SDS011;9266;51.132;17.062;2023-07-13T07:47:12;13.33;;;9.00;;
18280;SDS011;9266;51.132;17.062;2023-07-13T07:49:40;12.00;;;8.80;;
18280;SDS011;9266;51.132;17.062;2023-07-13T07:52:07;15.93;;;9.90;;
18280;SDS011;9266;51.132;17.062;2023-07-13T07:54:34;13.53;;;10.50;;
18280;SDS011;9266;51.132;17.062;2023-07-13T07:57:02;12.07;;;9.87;;
18280;SDS011;9266;51.132;17.062;2023-07-13T07:59:30;11.90;;;9.70;;
18280;SDS011;9266;51.132;17.062;2023-07-13T08:01:57;12.43;;;9.53;;
18280;SDS011;9266;51.132;17.062;2023-07-13T08:04:24;12.43;;;10.20;;
18280;SDS011;9266;51.132;17.062;2023-07-13T08:06:51;11.73;;;9.80;;
18280;SDS011;9266;51.132;17.062;2023-07-13T08:09:18;12.43;;;9.30;;
18280;SDS011;9266;51.132;17.062;2023-07-13T08:11:45;12.23;;;9.50;;
18280;SDS011;9266;51.132;17.062;2023-07-13T08:14:12;11.27;;;8.57;;
18280;SDS011;9266;51.132;17.062;2023-07-13T08:16:40;9.10;;;7.83;;
18280;SDS011;9266;51.132;17.062;2023-07-13T08:19:08;9.53;;;6.40;;
18280;SDS011;9266;51.132;17.062;2023-07-13T08:21:36;6.30;;;5.70;;
18280;SDS011;9266;51.132;17.062;2023-07-13T08:24:03;6.53;;;5.73;;
18280;SDS011;9266;51.132;17.062;2023-07-13T08:26:30;9.03;;;6.40;;
18280;SDS011;9266;51.132;17.062;2023-07-13T08:28:57;7.30;;;5.90;;
18280;SDS011;9266;51.132;17.062;2023-07-13T08:31:24;6.73;;;5.60;;
18280;SDS011;9266;51.132;17.062;2023-07-13T08:33:53;8.17;;;6.00;;
18280;SDS011;9266;51.132;17.062;2023-07-13T08:36:20;7.67;;;5.47;;
18280;SDS011;9266;51.132;17.062;2023-07-13T08:38:46;5.80;;;5.07;;
18280;SDS011;9266;51.132;17.062;2023-07-13T08:41:14;5.83;;;4.67;;
18280;SDS011;9266;51.132;17.062;2023-07-13T08:43:44;4.90;;;4.37;;
18280;SDS011;9266;51.132;17.062;2023-07-13T08:46:15;6.23;;;5.13;;
18280;SDS011;9266;51.132;17.062;2023-07-13T08:48:47;6.43;;;4.93;;
18280;SDS011;9266;51.132;17.062;2023-07-13T08:51:30;9.23;;;6.67;;
18280;SDS011;9266;51.132;17.062;2023-07-13T08:54:09;6.60;;;5.67;;
18280;SDS011;9266;51.132;17.062;2023-07-13T08:56:44;6.23;;;5.27;;
18280;SDS011;9266;51.132;17.062;2023-07-13T08:59:14;5.43;;;4.87;;
18280;SDS011;9266;51.132;17.062;2023-07-13T09:01:47;6.43;;;5.13;;
18280;SDS011;9266;51.132;17.062;2023-07-13T09:04:25;7.20;;;6.13;;
18280;SDS011;9266;51.132;17.062;2023-07-13T09:07:00;7.20;;;6.50;;
18280;SDS011;9266;51.132;17.062;2023-07-13T09:09:41;8.07;;;6.20;;
18280;SDS011;9266;51.132;17.062;2023-07-13T09:12:16;7.73;;;5.50;;
18280;SDS011;9266;51.132;17.062;2023-07-13T09:14:50;6.07;;;4.80;;
18280;SDS011;9266;51.132;17.062;2023-07-13T09:17:20;6.07;;;4.68;;
18280;SDS011;9266;51.132;17.062;2023-07-13T09:19:53;4.97;;;4.47;;
18280;SDS011;9266;51.132;17.062;2023-07-13T09:22:26;6.93;;;4.68;;
18280;SDS011;9266;51.132;17.062;2023-07-13T09:24:57;4.80;;;4.30;;
18280;SDS011;9266;51.132;17.062;2023-07-13T09:27:32;5.88;;;4.22;;
18280;SDS011;9266;51.132;17.062;2023-07-13T09:30:11;5.88;;;4.50;;
18280;SDS011;9266;51.132;17.062;2023-07-13T09:32:48;5.18;;;4.65;;
18280;SDS011;9266;51.132;17.062;2023-07-13T09:35:19;5.78;;;4.97;;
18280;SDS011;9266;51.132;17.062;2023-07-13T09:37:56;6.53;;;5.30;;
18280;SDS011;9266;51.132;17.062;2023-07-13T09:40:33;5.50;;;4.65;;
18280;SDS011;9266;51.132;17.062;2023-07-13T09:43:07;7.50;;;4.40;;
18280;SDS011;9266;51.132;17.062;2023-07-13T09:45:37;7.18;;;4.43;;
18280;SDS011;9266;51.132;17.062;2023-07-13T09:48:05;6.88;;;4.90;;
18280;SDS011;9266;51.132;17.062;2023-07-13T09:50:34;7.00;;;5.03;;
18280;SDS011;9266;51.132;17.062;2023-07-13T09:53:02;6.50;;;4.07;;
18280;SDS011;9266;51.132;17.062;2023-07-13T09:55:30;5.95;;;4.05;;
18280;SDS011;9266;51.132;17.062;2023-07-13T09:58:02;6.22;;;4.20;;
18280;SDS011;9266;51.132;17.062;2023-07-13T10:00:31;7.20;;;4.20;;
18280;SDS011;9266;51.132;17.062;2023-07-13T10:03:02;4.35;;;3.30;;
18280;SDS011;9266;51.132;17.062;2023-07-13T10:05:37;4.20;;;3.60;;
18280;SDS011;9266;51.132;17.062;2023-07-13T10:08:09;5.32;;;4.40;;
18280;SDS011;9266;51.132;17.062;2023-07-13T10:10:43;4.35;;;3.95;;
18280;SDS011;9266;51.132;17.062;2023-07-13T10:13:21;6.95;;;3.65;;
18280;SDS011;9266;51.132;17.062;2023-07-13T10:15:54;4.65;;;3.38;;
18280;SDS011;9266;51.132;17.062;2023-07-13T10:18:21;5.72;;;3.28;;
18280;SDS011;9266;51.132;17.062;2023-07-13T10:20:50;7.75;;;3.20;;
18280;SDS011;9266;51.132;17.062;2023-07-13T10:23:31;4.20;;;3.08;;
18280;SDS011;9266;51.132;17.062;2023-07-13T10:26:00;3.75;;;2.67;;
18280;SDS011;9266;51.132;17.062;2023-07-13T10:28:29;3.50;;;2.85;;
18280;SDS011;9266;51.132;17.062;2023-07-13T10:30:59;3.97;;;2.95;;
18280;SDS011;9266;51.132;17.062;2023-07-13T10:33:27;4.15;;;3.10;;
18280;SDS011;9266;51.132;17.062;2023-07-13T10:36:05;4.80;;;2.75;;
18280;SDS011;9266;51.132;17.062;2023-07-13T10:38:42;5.70;;;2.80;;
18280;SDS011;9266;51.132;17.062;2023-07-13T10:41:11;8.35;;;3.15;;
18280;SDS011;9266;51.132;17.062;2023-07-13T10:43:43;4.95;;;2.70;;
18280;SDS011;9266;51.132;17.062;2023-07-13T10:46:15;3.05;;;2.47;;
18280;SDS011;9266;51.132;17.062;2023-07-13T10:48:45;4.15;;;2.50;;
18280;SDS011;9266;51.132;17.062;2023-07-13T10:51:17;3.92;;;2.55;;
18280;SDS011;9266;51.132;17.062;2023-07-13T10:53:48;2.90;;;2.50;;
18280;SDS011;9266;51.132;17.062;2023-07-13T10:56:42;3.90;;;2.70;;
18280;SDS011;9266;51.132;17.062;2023-07-13T10:59:11;4.72;;;2.60;;
18280;SDS011;9266;51.132;17.062;2023-07-13T11:01:49;3.15;;;2.50;;
18280;SDS011;9266;51.132;17.062;2023-07-13T11:04:21;4.38;;;2.63;;
18280;SDS011;9266;51.132;17.062;2023-07-13T11:06:50;3.63;;;2.25;;
18280;SDS011;9266;51.132;17.062;2023-07-13T11:09:39;3.28;;;2.53;;
18280;SDS011;9266;51.132;17.062;2023-07-13T11:12:10;4.05;;;2.88;;
18280;SDS011;9266;51.132;17.062;2023-07-13T11:15:04;6.13;;;2.70;;
18280;SDS011;9266;51.132;17.062;2023-07-13T11:17:37;4.22;;;2.33;;
18280;SDS011;9266;51.132;17.062;2023-07-13T11:20:22;3.53;;;2.58;;
18280;SDS011;9266;51.132;17.062;2023-07-13T11:23:07;5.32;;;2.70;;
18280;SDS011;9266;51.132;17.062;2023-07-13T11:25:44;3.65;;;2.35;;
18280;SDS011;9266;51.132;17.062;2023-07-13T11:28:22;5.40;;;3.15;;
18280;SDS011;9266;51.132;17.062;2023-07-13T11:30:59;4.50;;;2.72;;
18280;SDS011;9266;51.132;17.062;2023-07-13T11:33:48;4.20;;;2.70;;
18280;SDS011;9266;51.132;17.062;2023-07-13T11:36:21;3.92;;;2.83;;
18280;SDS011;9266;51.132;17.062;2023-07-13T11:38:55;4.57;;;3.05;;
18280;SDS011;9266;51.132;17.062;2023-07-13T11:41:28;4.32;;;2.80;;
18280;SDS011;9266;51.132;17.062;2023-07-13T11:44:01;4.75;;;2.67;;
18280;SDS011;9266;51.132;17.062;2023-07-13T11:46:32;4.50;;;2.70;;
18280;SDS011;9266;51.132;17.062;2023-07-13T11:48:59;4.45;;;2.70;;
18280;SDS011;9266;51.132;17.062;2023-07-13T11:51:28;3.95;;;2.75;;
18280;SDS011;9266;51.132;17.062;2023-07-13T11:53:58;3.65;;;2.90;;
18280;SDS011;9266;51.132;17.062;2023-07-13T11:56:35;4.05;;;3.10;;
18280;SDS011;9266;51.132;17.062;2023-07-13T11:59:04;2.90;;;2.60;;
18280;SDS011;9266;51.132;17.062;2023-07-13T12:01:33;6.38;;;2.78;;
18280;SDS011;9266;51.132;17.062;2023-07-13T12:04:03;3.50;;;2.47;;
18280;SDS011;9266;51.132;17.062;2023-07-13T12:06:31;6.18;;;2.85;;
18280;SDS011;9266;51.132;17.062;2023-07-13T12:09:02;4.65;;;2.67;;
18280;SDS011;9266;51.132;17.062;2023-07-13T12:11:39;3.38;;;2.40;;
18280;SDS011;9266;51.132;17.062;2023-07-13T12:14:12;3.63;;;2.60;;
18280;SDS011;9266;51.132;17.062;2023-07-13T12:16:40;3.70;;;2.70;;
18280;SDS011;9266;51.132;17.062;2023-07-13T12:19:13;3.95;;;2.65;;
18280;SDS011;9266;51.132;17.062;2023-07-13T12:21:44;3.10;;;2.33;;
18280;SDS011;9266;51.132;17.062;2023-07-13T12:24:14;5.28;;;2.88;;
18280;SDS011;9266;51.132;17.062;2023-07-13T12:26:44;5.60;;;2.53;;
18280;SDS011;9266;51.132;17.062;2023-07-13T12:29:13;5.18;;;2.67;;
18280;SDS011;9266;51.132;17.062;2023-07-13T12:31:44;4.18;;;2.42;;
18280;SDS011;9266;51.132;17.062;2023-07-13T12:34:13;2.97;;;2.60;;
18280;SDS011;9266;51.132;17.062;2023-07-13T12:36:45;3.90;;;2.40;;
18280;SDS011;9266;51.132;17.062;2023-07-13T12:39:15;3.28;;;2.10;;
18280;SDS011;9266;51.132;17.062;2023-07-13T12:41:46;3.08;;;2.40;;
18280;SDS011;9266;51.132;17.062;2023-07-13T12:44:15;3.72;;;2.30;;
18280;SDS011;9266;51.132;17.062;2023-07-13T12:46:55;3.10;;;2.38;;
18280;SDS011;9266;51.132;17.062;2023-07-13T12:49:26;3.05;;;2.50;;
18280;SDS011;9266;51.132;17.062;2023-07-13T12:51:56;4.57;;;2.53;;
18280;SDS011;9266;51.132;17.062;2023-07-13T12:54:24;3.75;;;2.38;;
18280;SDS011;9266;51.132;17.062;2023-07-13T12:56:53;2.88;;;2.55;;
18280;SDS011;9266;51.132;17.062;2023-07-13T12:59:23;4.18;;;2.45;;
18280;SDS011;9266;51.132;17.062;2023-07-13T13:01:55;4.10;;;2.40;;
18280;SDS011;9266;51.132;17.062;2023-07-13T13:04:22;3.65;;;2.30;;
18280;SDS011;9266;51.132;17.062;2023-07-13T13:07:00;3.03;;;2.50;;
18280;SDS011;9266;51.132;17.062;2023-07-13T13:09:28;4.15;;;2.78;;
18280;SDS011;9266;51.132;17.062;2023-07-13T13:11:57;3.22;;;2.75;;
18280;SDS011;9266;51.132;17.062;2023-07-13T13:14:24;4.97;;;3.17;;
18280;SDS011;9266;51.132;17.062;2023-07-13T13:16:52;4.10;;;2.30;;
18280;SDS011;9266;51.132;17.062;2023-07-13T13:19:20;4.47;;;2.45;;
18280;SDS011;9266;51.132;17.062;2023-07-13T13:21:49;4.75;;;3.55;;
18280;SDS011;9266;51.132;17.062;2023-07-13T13:24:18;3.90;;;2.40;;
18280;SDS011;9266;51.132;17.062;2023-07-13T13:26:46;3.70;;;2.28;;
18280;SDS011;9266;51.132;17.062;2023-07-13T13:29:17;3.88;;;2.80;;
18280;SDS011;9266;51.132;17.062;2023-07-13T13:31:45;3.17;;;2.58;;
18280;SDS011;9266;51.132;17.062;2023-07-13T13:34:13;3.90;;;2.50;;
18280;SDS011;9266;51.132;17.062;2023-07-13T13:36:41;4.05;;;2.25;;
18280;SDS011;9266;51.132;17.062;2023-07-13T13:39:15;3.08;;;2.60;;
18280;SDS011;9266;51.132;17.062;2023-07-13T13:41:46;3.83;;;2.13;;
18280;SDS011;9266;51.132;17.062;2023-07-13T13:44:16;4.68;;;2.45;;
18280;SDS011;9266;51.132;17.062;2023-07-13T13:46:44;6.55;;;2.67;;
18280;SDS011;9266;51.132;17.062;2023-07-13T13:49:13;2.80;;;2.17;;
18280;SDS011;9266;51.132;17.062;2023-07-13T13:51:42;3.75;;;2.30;;
18280;SDS011;9266;51.132;17.062;2023-07-13T13:54:11;4.05;;;2.15;;
18280;SDS011;9266;51.132;17.062;2023-07-13T13:56:41;4.63;;;4.15;;
18280;SDS011;9266;51.132;17.062;2023-07-13T13:59:08;3.03;;;2.20;;
18280;SDS011;9266;51.132;17.062;2023-07-13T14:01:37;4.60;;;2.30;;
18280;SDS011;9266;51.132;17.062;2023-07-13T14:04:05;3.92;;;2.30;;
18280;SDS011;9266;51.132;17.062;2023-07-13T14:06:33;5.38;;;2.65;;
18280;SDS011;9266;51.132;17.062;2023-07-13T14:09:01;5.70;;;3.63;;
18280;SDS011;9266;51.132;17.062;2023-07-13T14:11:28;3.00;;;2.28;;
18280;SDS011;9266;51.132;17.062;2023-07-13T14:13:58;4.07;;;2.40;;
18280;SDS011;9266;51.132;17.062;2023-07-13T14:16:28;2.90;;;2.05;;
18280;SDS011;9266;51.132;17.062;2023-07-13T14:18:58;3.38;;;2.50;;
18280;SDS011;9266;51.132;17.062;2023-07-13T14:21:26;3.40;;;2.00;;
18280;SDS011;9266;51.132;17.062;2023-07-13T14:23:55;4.32;;;2.22;;
18280;SDS011;9266;51.132;17.062;2023-07-13T14:26:22;3.88;;;3.10;;
18280;SDS011;9266;51.132;17.062;2023-07-13T14:28:51;3.60;;;2.30;;
18280;SDS011;9266;51.132;17.062;2023-07-13T14:31:20;7.63;;;2.30;;
18280;SDS011;9266;51.132;17.062;2023-07-13T14:33:48;4.78;;;2.20;;
18280;SDS011;9266;51.132;17.062;2023-07-13T14:36:23;2.63;;;2.10;;
18280;SDS011;9266;51.132;17.062;2023-07-13T14:38:54;1.92;;;1.73;;
18280;SDS011;9266;51.132;17.062;2023-07-13T14:41:22;4.15;;;2.45;;
18280;SDS011;9266;51.132;17.062;2023-07-13T14:43:49;3.20;;;2.40;;
18280;SDS011;9266;51.132;17.062;2023-07-13T14:46:18;2.40;;;1.80;;
18280;SDS011;9266;51.132;17.062;2023-07-13T14:48:53;2.28;;;1.80;;
18280;SDS011;9266;51.132;17.062;2023-07-13T14:51:30;2.50;;;1.80;;
18280;SDS011;9266;51.132;17.062;2023-07-13T14:54:01;3.13;;;1.90;;
18280;SDS011;9266;51.132;17.062;2023-07-13T14:56:30;3.33;;;2.03;;
18280;SDS011;9266;51.132;17.062;2023-07-13T14:58:57;4.85;;;2.15;;